• Join FlightAware (Why Join?)
  • Login
  • US Flag 
09:29PM EDT


 

Airport Tracker/Info


-or-


 

Live Flight TrackerFlight Track Log ✈ FIN666 ✈ 17-Apr-2014 ✈ EKCH / CPH - EFHK / HEL

Flight Track Log - Related Links

Times and Time Zones

All times are in EDT time to prevent confusion due to time zone crossing. See the FIN666 flight status page for this flight to view local times or setup timezone preferences in your user account.

Time Position Orientation Groundspeed Altitude Reporting Facility
EDT Latitude Longitude Course Direction KTS MPH feet Rate Location/Type
07:27AM 55.8420 13.1192 49° Northeast  Level Estimated
07:28AM 55.9164 13.2747 50° Northeast  Level Estimated
07:29AM 55.9905 13.4309 50° Northeast  Level Estimated
07:30AM 56.0644 13.5877 50° Northeast  Level Estimated
07:31AM 56.1381 13.7451 50° Northeast  Level Estimated
07:32AM 56.2117 13.9031 50° Northeast  Level Estimated
07:33AM 56.2850 14.0617 50° Northeast  Level Estimated
07:34AM 56.3581 14.2208 50° Northeast  Level Estimated
07:35AM 56.4310 14.3807 50° Northeast  Level Estimated
07:36AM 56.5037 14.5411 51° Northeast  Level Estimated
07:37AM 56.5762 14.7021 51° Northeast  Level Estimated
07:38AM 56.6485 14.8638 51° Northeast  Level Estimated
07:39AM 56.7206 15.0260 51° Northeast  Level Estimated
07:40AM 56.7925 15.1889 51° Northeast  Level Estimated
07:41AM 56.8641 15.3525 51° Northeast  Level Estimated
07:42AM 56.9356 15.5166 51° Northeast  Level Estimated
07:43AM 57.0068 15.6814 52° Northeast  Level Estimated
07:44AM 57.0778 15.8468 52° Northeast  Level Estimated
07:45AM 57.1486 16.0129 52° Northeast  Level Estimated
07:46AM 57.2212 16.1845 52° Northeast  Level Estimated
07:47AM 57.2936 16.3567 52° Northeast  Level Estimated
07:48AM 57.3658 16.5297 52° Northeast  Level Estimated
07:49AM 57.4377 16.7033 52° Northeast  Level Estimated
07:50AM 57.5094 16.8776 53° Northeast  Level Estimated
07:51AM 57.5809 17.0526 53° Northeast  Level Estimated
07:52AM 57.6521 17.2283 53° Northeast  Level Estimated
07:53AM 57.7230 17.4046 53° Northeast  Level Estimated
07:54AM 57.7938 17.5817 53° Northeast  Level Estimated
07:55AM 57.8642 17.7595 53° Northeast  Level Estimated
07:56AM 57.9345 17.9379 53° Northeast  Level Estimated
07:57AM 58.0044 18.1171 54° Northeast  Level Estimated
07:58AM 58.0742 18.2969 54° Northeast  Level Estimated
07:59AM 58.1436 18.4775 54° Northeast  Level Estimated
08:00AM 58.2128 18.6587 54° Northeast  Level Estimated
08:01AM 58.2818 18.8407 54° Northeast  Level Estimated
08:02AM 58.3505 19.0234 54° Northeast  Level Estimated
08:03AM 58.4189 19.2068 54° Northeast  Level Estimated
08:04AM 58.4871 19.3909 55° Northeast  Level Estimated
08:05AM 58.5550 19.5757 55° Northeast  Level Estimated
08:06AM 58.6226 19.7612 55° Northeast  Level Estimated
08:07AM 58.6900 19.9474 55° Northeast  Level Estimated
08:08AM 58.7571 20.1344 55° Northeast  Level Estimated
08:09AM 58.8239 20.3221 55° Northeast  Level Estimated
08:10AM 58.8904 20.5105 56° Northeast  Level Estimated
08:11AM 58.9567 20.6996 56° Northeast  Level Estimated
08:12AM 59.0227 20.8895 56° Northeast  Level Estimated
08:13AM 59.0884 21.0801 56° Northeast  Level Estimated
08:14AM 59.1539 21.2714 56° Northeast  Level Estimated
08:15AM 59.2181 21.4607 56° Northeast  Level Estimated
08:16AM 59.2820 21.6507 57° Northeast  Level Estimated
08:17AM 59.3457 21.8414 57° Northeast  Level Estimated
08:18AM 59.4091 22.0328 57° Northeast  Level Estimated
08:19AM 59.4722 22.2249 57° Northeast  Level Estimated
08:20AM 59.5350 22.4177 57° Northeast  Level Estimated
08:21AM 59.5975 22.6113 57° Northeast  Level Estimated
08:22AM 59.6598 22.8056 58° Northeast  Level Estimated
08:23AM 59.7217 23.0006 58° Northeast  Level Estimated
08:24AM 59.7834 23.1963 58° Northeast  Level Estimated
08:25AM 59.8448 23.3927 58° Northeast  Level Estimated
08:26AM 59.9059 23.5899 58° Northeast  Level Estimated
08:27AM 59.9667 23.7878 58° Northeast  Level Estimated
08:28AM 60.0271 23.9864 59° Northeast  Level Estimated
08:29AM 60.0873 24.1857 59° Northeast  Level Estimated
08:30AM 60.1472 24.3858 59° Northeast  Level Estimated
08:31AM 60.2068 24.5866 59° Northeast  Level Estimated
08:32AM 60.2661 24.7882 59° Northeast  Level Estimated
08:33AM 60.3172 24.9633 59° Northeast  Level Estimated
08:34AM 60.3172 24.9633 North  Level Estimated
08:35AM 60.3172 24.9633 North  Level Estimated
08:36AM 60.3172 24.9633 North  Level Estimated
08:37AM 60.3172 24.9633 North  Level Estimated
08:38AM 60.3172 24.9633 North  Level Estimated
08:39AM 60.3172 24.9633 North  Level Estimated
08:40AM 60.3172 24.9633 North  Level Estimated
08:41AM 60.3172 24.9633 North  Level Estimated
08:42AM 60.3172 24.9633 North  Level Estimated